createdAt,value
2023-03-15T00:04:21.450Z,1.40
2023-03-15T00:09:16.125Z,1.40
2023-03-15T00:11:43.285Z,1.40
2023-03-15T00:14:11.163Z,1.40
2023-03-15T00:19:05.603Z,1.30
2023-03-15T00:31:25.788Z,1.30
2023-03-15T00:33:53.844Z,1.30
2023-03-15T00:36:25.142Z,1.30
2023-03-15T00:38:56.160Z,1.30
2023-03-15T00:41:24.404Z,1.20
2023-03-15T00:43:52.088Z,1.20
2023-03-15T00:46:20.319Z,1.20
2023-03-15T00:48:52.029Z,1.20
2023-03-15T00:51:23.640Z,1.20
2023-03-15T00:53:53.392Z,1.20
2023-03-15T00:56:27.861Z,1.20
2023-03-15T00:58:54.859Z,1.20
2023-03-15T01:01:27.979Z,1.20
2023-03-15T01:03:55.822Z,1.20
2023-03-15T01:06:28.731Z,1.20
2023-03-15T01:11:27.894Z,1.30
2023-03-15T01:13:59.029Z,1.40
2023-03-15T01:16:28.252Z,1.30
2023-03-15T01:18:56.695Z,1.30
2023-03-15T01:21:24.693Z,1.40
2023-03-15T01:23:53.343Z,1.40
2023-03-15T01:31:28.250Z,1.40
2023-03-15T01:33:57.751Z,1.40
2023-03-15T01:36:27.307Z,1.30
2023-03-15T01:41:27.493Z,1.20
2023-03-15T01:46:36.707Z,1.20
2023-03-15T01:52:12.807Z,1.00
2023-03-15T01:55:15.471Z,0.90
2023-03-15T01:58:12.472Z,0.80
2023-03-15T02:00:42.975Z,0.70
2023-03-15T02:03:38.966Z,0.70
2023-03-15T02:06:10.430Z,0.60
2023-03-15T02:09:00.008Z,0.60
2023-03-15T02:11:34.230Z,0.60
2023-03-15T02:14:04.292Z,0.60
2023-03-15T02:16:32.158Z,0.60
2023-03-15T02:22:22.866Z,0.60
2023-03-15T02:26:00.383Z,0.60
2023-03-15T02:30:57.895Z,0.60
2023-03-15T02:33:42.621Z,0.60
2023-03-15T02:36:14.972Z,0.60
2023-03-15T02:38:43.070Z,0.60
2023-03-15T02:43:41.882Z,0.60
2023-03-15T02:46:10.723Z,0.60
2023-03-15T02:48:40.580Z,0.60
2023-03-15T02:51:07.612Z,0.60
2023-03-15T02:53:35.817Z,0.60
2023-03-15T02:56:03.410Z,0.60
2023-03-15T02:58:32.198Z,0.60
2023-03-15T03:01:01.802Z,0.60
2023-03-15T03:03:28.966Z,0.60
2023-03-15T03:05:55.926Z,0.60
2023-03-15T03:10:51.190Z,0.60
2023-03-15T03:13:18.200Z,0.60
2023-03-15T03:18:14.679Z,0.60
2023-03-15T03:20:41.702Z,0.60
2023-03-15T03:23:08.748Z,0.60
2023-03-15T03:25:36.627Z,0.60
2023-03-15T03:28:04.219Z,0.60
2023-03-15T03:30:35.932Z,0.60
2023-03-15T03:35:32.724Z,2.20
2023-03-15T03:37:59.853Z,0.70
2023-03-15T03:40:33.265Z,0.70
2023-03-15T03:43:00.566Z,0.60
2023-03-15T03:47:58.025Z,0.60
2023-03-15T03:50:25.819Z,0.60
2023-03-15T03:52:53.293Z,0.60
2023-03-15T03:55:25.395Z,0.60
2023-03-15T04:00:41.886Z,0.60
2023-03-15T04:05:41.795Z,0.50
2023-03-15T04:08:08.995Z,0.50
2023-03-15T04:10:39.252Z,0.50
2023-03-15T04:15:33.790Z,0.50
2023-03-15T04:18:05.626Z,0.50
2023-03-15T04:20:37.668Z,0.50
2023-03-15T04:26:00.188Z,0.50
2023-03-15T04:28:43.524Z,0.50
2023-03-15T04:34:16.518Z,0.50
2023-03-15T04:36:57.996Z,0.50
2023-03-15T04:42:30.272Z,0.40
2023-03-15T04:45:11.032Z,0.40
2023-03-15T04:48:02.847Z,0.40
2023-03-15T04:56:29.970Z,0.40
2023-03-15T05:01:53.815Z,0.40
2023-03-15T05:04:30.610Z,0.40
2023-03-15T05:10:07.723Z,0.30
2023-03-15T05:13:10.512Z,0.30
2023-03-15T05:15:48.415Z,0.30
2023-03-15T05:21:22.513Z,0.30
2023-03-15T05:24:22.492Z,0.30
2023-03-15T05:26:56.892Z,0.20
2023-03-15T05:29:42.974Z,0.20
2023-03-15T05:32:39.455Z,0.20
2023-03-15T05:38:08.704Z,0.20
2023-03-15T05:40:54.690Z,0.20
2023-03-15T05:46:33.748Z,0.20
2023-03-15T05:49:14.023Z,0.20
2023-03-15T05:59:47.292Z,0.30
2023-03-15T06:02:42.362Z,0.20
2023-03-15T06:08:05.529Z,0.20
2023-03-15T06:10:34.481Z,0.20
2023-03-15T06:13:06.963Z,0.20
2023-03-15T06:15:34.106Z,0.20
2023-03-15T06:23:04.343Z,0.20
2023-03-15T06:28:07.531Z,0.20
2023-03-15T06:30:36.917Z,0.20
2023-03-15T06:33:04.170Z,0.20
2023-03-15T06:35:31.427Z,0.20
2023-03-15T06:37:58.409Z,0.20
2023-03-15T06:42:55.136Z,0.30
2023-03-15T06:55:17.963Z,0.50
2023-03-15T06:57:45.751Z,0.50
2023-03-15T07:00:14.837Z,0.50
2023-03-15T07:07:37.892Z,0.60
2023-03-15T07:10:06.172Z,0.50
2023-03-15T07:12:33.750Z,0.50
2023-03-15T07:17:28.675Z,0.60
2023-03-15T07:19:56.995Z,0.60
2023-03-15T07:22:25.108Z,0.60
2023-03-15T07:24:52.400Z,0.80
2023-03-15T07:27:19.874Z,0.90
2023-03-15T07:32:16.399Z,1.00
2023-03-15T07:34:43.904Z,1.20
2023-03-15T07:39:39.064Z,1.30
2023-03-15T07:44:40.549Z,1.10
2023-03-15T07:47:08.032Z,1.20
2023-03-15T07:49:35.038Z,1.20
2023-03-15T07:52:02.049Z,1.20
2023-03-15T07:54:31.578Z,1.20
2023-03-15T08:01:54.650Z,1.20
2023-03-15T08:04:21.699Z,1.30
2023-03-15T08:06:48.703Z,1.50
2023-03-15T08:09:15.647Z,1.60
2023-03-15T08:11:43.513Z,1.90
2023-03-15T08:14:11.772Z,2.30
2023-03-15T08:24:01.663Z,2.00
2023-03-15T08:31:23.739Z,2.00
2023-03-15T08:36:18.241Z,2.80
2023-03-15T08:38:45.247Z,3.20
2023-03-15T08:41:12.276Z,3.40
2023-03-15T08:43:39.247Z,3.90
2023-03-15T08:46:06.287Z,4.30
2023-03-15T08:48:33.335Z,4.70
2023-03-15T08:51:06.875Z,5.00
2023-03-15T08:53:33.888Z,5.50
2023-03-15T08:56:01.627Z,4.60
2023-03-15T08:58:28.619Z,3.90
2023-03-15T09:06:17.871Z,3.70
2023-03-15T09:08:44.801Z,4.40
2023-03-15T09:11:15.446Z,4.40
2023-03-15T09:13:43.264Z,4.80
2023-03-15T09:21:07.480Z,5.30
2023-03-15T09:23:34.794Z,5.00
2023-03-15T09:26:02.217Z,4.50
2023-03-15T09:28:29.506Z,4.50
2023-03-15T09:30:58.807Z,4.60
2023-03-15T09:33:27.031Z,5.60
2023-03-15T09:38:25.558Z,6.00
2023-03-15T09:41:00.172Z,6.50
2023-03-15T09:44:12.162Z,6.70
2023-03-15T09:47:17.999Z,6.30
2023-03-15T09:50:11.120Z,5.50
2023-03-15T09:52:48.728Z,4.90
2023-03-15T09:55:24.994Z,5.00
2023-03-15T09:58:01.217Z,4.70
2023-03-15T10:00:48.582Z,4.50
2023-03-15T10:03:52.701Z,4.70
2023-03-15T10:09:03.938Z,4.30
2023-03-15T10:11:56.139Z,4.30
2023-03-15T10:15:01.353Z,4.20
2023-03-15T10:17:51.386Z,4.30
2023-03-15T10:20:30.271Z,4.10
2023-03-15T10:23:38.123Z,4.00
2023-03-15T10:26:13.327Z,4.00
2023-03-15T10:31:22.480Z,4.70
2023-03-15T10:33:57.604Z,5.00
2023-03-15T10:36:25.853Z,4.70
2023-03-15T10:38:53.089Z,4.60
2023-03-15T10:41:44.452Z,4.50
2023-03-15T10:44:29.855Z,4.20
2023-03-15T10:47:21.607Z,4.20
2023-03-15T10:49:50.272Z,4.20
2023-03-15T10:52:35.379Z,4.00
2023-03-15T10:55:13.730Z,3.90
2023-03-15T10:57:54.912Z,3.90
2023-03-15T11:03:15.462Z,3.60
2023-03-15T11:05:51.336Z,3.50
2023-03-15T11:08:24.104Z,3.50
2023-03-15T11:11:00.324Z,3.40
2023-03-15T11:13:31.371Z,3.40
2023-03-15T11:16:09.647Z,3.40
2023-03-15T11:19:03.718Z,3.30
2023-03-15T11:21:34.394Z,3.40
2023-03-15T11:24:05.566Z,3.30
2023-03-15T11:26:41.067Z,3.30
2023-03-15T11:29:26.229Z,3.20
2023-03-15T11:31:55.386Z,3.20
2023-03-15T11:34:55.864Z,3.20
2023-03-15T11:37:33.729Z,3.20
2023-03-15T11:40:22.111Z,3.20
2023-03-15T11:45:42.713Z,3.00
2023-03-15T11:48:36.698Z,2.90
2023-03-15T11:51:05.697Z,2.80
2023-03-15T11:54:05.370Z,2.80
2023-03-15T11:56:55.787Z,2.70
2023-03-15T11:59:36.607Z,2.80
2023-03-15T12:02:15.707Z,2.80
2023-03-15T12:04:51.317Z,2.90
2023-03-15T12:07:24.362Z,3.00
2023-03-15T12:10:04.364Z,2.90
2023-03-15T12:12:32.466Z,2.90
2023-03-15T12:15:19.244Z,3.00
2023-03-15T12:17:57.188Z,3.00
2023-03-15T12:20:42.738Z,3.00
2023-03-15T12:23:18.466Z,3.00
2023-03-15T12:26:01.812Z,3.00
2023-03-15T12:28:38.872Z,2.90
2023-03-15T12:31:16.391Z,2.90
2023-03-15T12:33:58.371Z,2.80
2023-03-15T12:36:40.308Z,2.80
2023-03-15T12:39:16.097Z,2.80
2023-03-15T12:41:51.875Z,2.80
2023-03-15T12:44:33.662Z,2.80
2023-03-15T12:47:03.748Z,2.80
2023-03-15T12:49:44.981Z,2.90
2023-03-15T12:52:11.809Z,2.80
2023-03-15T12:54:50.426Z,2.60
2023-03-15T12:57:30.614Z,2.40
2023-03-15T13:00:21.508Z,2.30
2023-03-15T13:03:16.756Z,2.20
2023-03-15T13:06:35.620Z,2.10
2023-03-15T13:09:49.405Z,2.00
2023-03-15T13:12:44.749Z,1.90
2023-03-15T13:15:34.996Z,2.10
2023-03-15T13:18:24.428Z,2.10
2023-03-15T13:21:26.395Z,2.10
2023-03-15T13:23:59.120Z,2.30
2023-03-15T13:26:58.429Z,2.40
2023-03-15T13:29:32.736Z,2.50
2023-03-15T13:32:18.548Z,2.50
2023-03-15T13:34:48.258Z,2.40
2023-03-15T13:37:28.993Z,2.40
2023-03-15T13:40:12.679Z,2.40
2023-03-15T13:42:41.330Z,2.40
2023-03-15T13:45:16.097Z,2.40
2023-03-15T13:47:45.950Z,2.50
2023-03-15T13:50:20.196Z,2.70
2023-03-15T13:52:48.809Z,2.60
2023-03-15T13:55:22.393Z,2.40
2023-03-15T13:58:00.356Z,2.60
2023-03-15T14:00:33.674Z,2.60
2023-03-15T14:03:13.489Z,2.60
2023-03-15T14:05:52.911Z,2.60
2023-03-15T14:08:37.138Z,2.50
2023-03-15T14:11:37.174Z,2.50
2023-03-15T14:14:27.955Z,2.50
2023-03-15T14:17:05.327Z,2.50
2023-03-15T14:19:35.758Z,2.50
2023-03-15T14:22:15.699Z,2.50
2023-03-15T14:24:48.033Z,2.60
2023-03-15T14:27:21.651Z,2.60
2023-03-15T14:30:01.776Z,2.60
2023-03-15T14:32:38.658Z,2.60
2023-03-15T14:35:41.853Z,2.60
2023-03-15T14:38:22.584Z,2.60
2023-03-15T14:40:51.890Z,2.70
2023-03-15T14:43:19.519Z,2.70
2023-03-15T14:45:49.210Z,2.60
2023-03-15T14:48:31.750Z,2.60
2023-03-15T14:50:58.791Z,2.60
2023-03-15T14:53:34.430Z,2.60
2023-03-15T14:58:29.157Z,2.70
2023-03-15T15:00:57.912Z,2.60
2023-03-15T15:03:47.506Z,2.70
2023-03-15T15:06:18.022Z,2.70
2023-03-15T15:08:48.428Z,2.80
2023-03-15T15:11:16.043Z,2.80
2023-03-15T15:13:43.295Z,2.80
2023-03-15T15:18:38.514Z,2.40
2023-03-15T15:21:31.183Z,2.30
2023-03-15T15:24:03.026Z,2.20
2023-03-15T15:26:32.308Z,2.00
2023-03-15T15:29:00.707Z,1.90
2023-03-15T15:31:34.066Z,1.80
2023-03-15T15:34:01.701Z,1.80
2023-03-15T15:36:40.860Z,1.80
2023-03-15T15:39:27.393Z,1.80
2023-03-15T15:41:54.499Z,1.80
2023-03-15T15:44:25.431Z,1.80
2023-03-15T15:46:52.820Z,1.80
2023-03-15T15:49:20.881Z,1.90
2023-03-15T15:51:49.696Z,2.00
2023-03-15T15:54:23.393Z,2.00
2023-03-15T15:56:58.470Z,2.00
2023-03-15T16:02:02.776Z,2.00
2023-03-15T16:04:30.774Z,2.00
2023-03-15T16:07:02.540Z,2.10
2023-03-15T16:09:36.537Z,2.10
2023-03-15T16:17:23.666Z,2.10
2023-03-15T16:19:51.876Z,2.10
2023-03-15T16:22:22.900Z,2.00
2023-03-15T16:24:57.043Z,1.90
2023-03-15T16:27:27.403Z,1.80
2023-03-15T16:29:55.801Z,1.80
2023-03-15T16:32:37.250Z,1.80
2023-03-15T16:35:15.218Z,1.80
2023-03-15T16:40:29.335Z,1.60
2023-03-15T16:42:57.565Z,1.50
2023-03-15T16:45:25.997Z,1.50
2023-03-15T16:47:53.695Z,1.40
2023-03-15T16:50:21.082Z,1.30
2023-03-15T16:52:54.566Z,1.20
2023-03-15T16:55:30.018Z,1.00
2023-03-15T16:57:57.634Z,0.90
2023-03-15T17:00:25.459Z,0.80
2023-03-15T17:02:55.020Z,0.70
2023-03-15T17:05:24.147Z,0.70
2023-03-15T17:07:53.997Z,0.60
2023-03-15T17:10:30.766Z,0.50
2023-03-15T17:13:01.658Z,0.40
2023-03-15T17:15:30.609Z,0.30
2023-03-15T17:17:57.898Z,0.20
2023-03-15T17:20:28.239Z,0.30
2023-03-15T17:23:04.728Z,0.50
2023-03-15T17:25:33.882Z,0.50
2023-03-15T17:28:01.275Z,0.60
2023-03-15T17:30:33.971Z,0.60
2023-03-15T17:33:02.195Z,0.70
2023-03-15T17:35:44.171Z,0.80
2023-03-15T17:38:21.629Z,0.90
2023-03-15T17:43:17.295Z,1.00
2023-03-15T17:45:44.366Z,1.00
2023-03-15T17:48:11.683Z,1.00
2023-03-15T17:50:42.555Z,1.00
2023-03-15T17:53:21.021Z,0.90
2023-03-15T17:55:48.960Z,0.90
2023-03-15T17:58:23.585Z,0.90
2023-03-15T18:00:54.381Z,0.90
2023-03-15T18:03:23.633Z,0.90
2023-03-15T18:08:21.423Z,0.90
2023-03-15T18:10:50.616Z,0.90
2023-03-15T18:13:21.790Z,0.80
2023-03-15T18:15:50.146Z,0.80
2023-03-15T18:18:17.671Z,0.80
2023-03-15T18:23:17.935Z,0.70
2023-03-15T18:28:12.716Z,0.50
2023-03-15T18:33:07.642Z,0.30
2023-03-15T18:35:37.435Z,0.20
2023-03-15T18:38:05.874Z,0.00
2023-03-15T18:40:34.476Z,-0.10
2023-03-15T18:45:35.356Z,-0.40
2023-03-15T18:52:59.185Z,-0.60
2023-03-15T18:55:26.663Z,-0.70
2023-03-15T18:57:55.453Z,-0.60
2023-03-15T19:00:31.400Z,-0.70
2023-03-15T19:03:05.578Z,-0.80
2023-03-15T19:05:37.105Z,-0.90
2023-03-15T19:10:31.780Z,-1.00
2023-03-15T19:17:56.640Z,-1.20
2023-03-15T19:20:24.596Z,-1.30
2023-03-15T19:22:52.999Z,-1.20
2023-03-15T19:25:20.869Z,-1.30
2023-03-15T19:27:48.475Z,-1.20
2023-03-15T19:30:21.103Z,-1.30
2023-03-15T19:32:50.384Z,-1.40
2023-03-15T19:35:19.461Z,-1.60
2023-03-15T19:40:17.067Z,-1.70
2023-03-15T19:45:12.769Z,-1.90
2023-03-15T19:50:10.944Z,-2.00
2023-03-15T19:52:45.655Z,-2.00
2023-03-15T19:55:19.540Z,-2.00
2023-03-15T19:57:47.096Z,-2.10
2023-03-15T20:00:18.619Z,-2.20
2023-03-15T20:02:46.634Z,-2.30
2023-03-15T20:05:18.678Z,-2.30
2023-03-15T20:07:47.159Z,-2.20
2023-03-15T20:10:14.906Z,-2.20
2023-03-15T20:12:43.098Z,-2.10
2023-03-15T20:15:13.890Z,-2.20
2023-03-15T20:17:42.120Z,-2.10
2023-03-15T20:20:11.369Z,-2.20
2023-03-15T20:22:41.397Z,-2.20
2023-03-15T20:25:12.751Z,-2.20
2023-03-15T20:30:12.590Z,-2.20
2023-03-15T20:32:40.315Z,-2.20
2023-03-15T20:35:09.427Z,-2.30
2023-03-15T20:37:40.143Z,-2.20
2023-03-15T20:40:14.631Z,-2.30
2023-03-15T20:42:42.938Z,-2.30
2023-03-15T20:45:12.538Z,-2.40
2023-03-15T20:50:11.668Z,-2.60
2023-03-15T20:55:07.942Z,-2.70
2023-03-15T20:57:36.348Z,-2.80
2023-03-15T21:00:12.415Z,-2.80
2023-03-15T21:02:40.220Z,-2.90
2023-03-15T21:05:12.884Z,-3.00
2023-03-15T21:07:41.386Z,-2.90
2023-03-15T21:10:11.188Z,-2.90
2023-03-15T21:12:38.221Z,-3.00
2023-03-15T21:15:06.469Z,-3.00
2023-03-15T21:20:01.655Z,-2.80
2023-03-15T21:22:28.735Z,-2.80
2023-03-15T21:24:56.473Z,-2.80
2023-03-15T21:27:25.981Z,-2.80
2023-03-15T21:32:21.050Z,-2.90
2023-03-15T21:34:48.074Z,-3.00
2023-03-15T21:37:15.230Z,-3.00
2023-03-15T21:47:06.142Z,-2.60
2023-03-15T21:49:33.500Z,-2.60
2023-03-15T21:56:56.947Z,-2.80
2023-03-15T22:01:57.158Z,-2.80
2023-03-15T22:06:55.036Z,-3.00
2023-03-15T22:09:23.501Z,-3.00
2023-03-15T22:16:45.882Z,-3.20
2023-03-15T22:24:10.498Z,-3.20
2023-03-15T22:26:37.480Z,-3.20
2023-03-15T22:33:59.734Z,-3.10
2023-03-15T22:36:26.696Z,-3.10
2023-03-15T22:38:53.693Z,-3.30
2023-03-15T22:43:48.305Z,-3.40
2023-03-15T22:48:42.911Z,-3.40
2023-03-15T22:51:15.171Z,-3.50
2023-03-15T22:53:42.625Z,-3.50
2023-03-15T22:58:38.021Z,-3.70
2023-03-15T23:01:05.358Z,-3.60
2023-03-15T23:10:58.320Z,-3.80
2023-03-15T23:13:25.343Z,-3.80
2023-03-15T23:30:45.653Z,-3.80
2023-03-15T23:35:41.802Z,-3.80
2023-03-15T23:40:36.753Z,-3.80
2023-03-15T23:52:56.496Z,-3.90
2023-03-15T23:55:24.790Z,-3.90
2023-03-15T23:57:51.968Z,-4.00
